Time;durP1;ratioP1;P1;durP2;ratioP2;P2;SDS_P1;SDS_P2;PMS_P1;PMS_P2;Temp;Humidity;BMP_temperature;BMP_pressure;BME280_temperature;BME280_humidity;BME280_pressure;Samples;Min_cycle;Max_cycle;Signal;HPM_P1;HPM_P2
2023/10/28 00:00:37;;;;;;;;;;;9.50;99.90;;;;;;4861835;29;20320;-87
2023/10/28 00:03:04;;;;;;;;;;;9.50;99.90;;;;;;4862089;29;19928;-87
2023/10/28 00:05:29;;;;;;;;;;;9.50;99.90;;;;;;4862816;29;20027;-88
2023/10/28 00:07:55;;;;;;;;;;;9.50;99.90;;;;;;4846287;29;20388;-89
2023/10/28 00:10:21;;;;;;;;;;;9.50;99.90;;;;;;4861617;29;19928;-88
2023/10/28 00:12:49;;;;;;;;;;;9.50;99.90;;;;;;4861595;29;19975;-87
2023/10/28 00:15:18;;;;;;;;;;;9.50;99.90;;;;;;4861753;29;19984;-88
2023/10/28 00:17:47;;;;;;;;;;;9.40;99.90;;;;;;4861794;29;20288;-87
2023/10/28 00:20:14;;;;;;;;;;;9.40;99.90;;;;;;4862220;29;19928;-87
2023/10/28 00:22:40;;;;;;;;;;;9.50;99.90;;;;;;4861258;29;19935;-88
2023/10/28 00:25:06;;;;;;;;;;;9.40;99.90;;;;;;4862369;29;19932;-87
2023/10/28 00:27:33;;;;;;;;;;;9.50;99.90;;;;;;4861348;29;19976;-88
2023/10/28 00:30:00;;;;;;;;;;;9.40;99.90;;;;;;4861157;29;19982;-87
2023/10/28 00:32:26;;;;;;;;;;;9.40;99.90;;;;;;4861570;29;19929;-87
2023/10/28 00:34:51;;;;;;;;;;;9.40;99.90;;;;;;4845920;29;19928;-87
2023/10/28 00:37:17;;;;;;;;;;;9.30;99.90;;;;;;4845795;29;20067;-87
2023/10/28 00:39:43;;;;;;;;;;;9.30;99.90;;;;;;4860909;29;19928;-88
2023/10/28 00:42:13;;;;;;;;;;;9.30;99.90;;;;;;4861755;29;20027;-87
2023/10/28 00:44:39;;;;;;;;;;;9.20;99.90;;;;;;4860854;29;19953;-88
2023/10/28 00:47:05;;;;;;;;;;;9.30;99.90;;;;;;4862190;29;20302;-87
2023/10/28 00:49:30;;;;;;;;;;;9.30;99.90;;;;;;4860746;29;19935;-89
2023/10/28 00:51:57;;;;;;;;;;;9.30;99.90;;;;;;4860886;29;19932;-88
2023/10/28 00:54:23;;;;;;;;;;;9.20;99.90;;;;;;4862392;29;19928;-87
2023/10/28 00:56:49;;;;;;;;;;;9.20;99.90;;;;;;4860603;29;19936;-87
2023/10/28 00:59:15;;;;;;;;;;;9.20;99.90;;;;;;4861928;29;20272;-87
2023/10/28 01:01:41;;;;;;;;;;;9.20;99.90;;;;;;4860938;29;19928;-87
2023/10/28 01:04:06;;;;;;;;;;;9.20;99.90;;;;;;4862175;29;19936;-88
2023/10/28 01:06:32;;;;;;;;;;;9.10;99.90;;;;;;4845562;29;19935;-88
2023/10/28 01:08:58;;;;;;;;;;;9.20;99.90;;;;;;4860875;29;20372;-88
2023/10/28 01:11:25;;;;;;;;;;;9.20;99.90;;;;;;4845536;29;19981;-88
2023/10/28 01:13:50;;;;;;;;;;;9.10;99.90;;;;;;4845335;29;20396;-88
2023/10/28 01:16:16;;;;;;;;;;;9.10;99.90;;;;;;4845229;29;20033;-88
2023/10/28 01:18:41;;;;;;;;;;;9.10;99.90;;;;;;4845287;29;19928;-88
2023/10/28 01:21:13;;;;;;;;;;;9.10;99.90;;;;;;4860895;29;19928;-91
2023/10/28 01:23:40;;;;;;;;;;;9.10;99.90;;;;;;4861592;29;19987;-89
2023/10/28 01:26:05;;;;;;;;;;;9.10;99.90;;;;;;4861252;29;19950;-88
2023/10/28 01:28:32;;;;;;;;;;;9.00;99.90;;;;;;4861410;29;19929;-88
2023/10/28 01:30:59;;;;;;;;;;;9.00;99.90;;;;;;4861181;29;19928;-89
2023/10/28 01:33:25;;;;;;;;;;;9.00;99.90;;;;;;4860474;29;19929;-87
2023/10/28 01:35:51;;;;;;;;;;;9.00;99.90;;;;;;4860916;29;19951;-87
2023/10/28 01:38:17;;;;;;;;;;;8.90;99.90;;;;;;4861874;29;20280;-88
2023/10/28 01:40:42;;;;;;;;;;;8.80;99.90;;;;;;4861177;29;20019;-87
2023/10/28 01:43:08;;;;;;;;;;;8.90;99.90;;;;;;4862767;29;20039;-87
2023/10/28 01:45:34;;;;;;;;;;;8.80;99.90;;;;;;4861968;29;19928;-88
2023/10/28 01:47:59;;;;;;;;;;;8.80;99.90;;;;;;4860336;29;20407;-87
2023/10/28 01:50:25;;;;;;;;;;;8.80;99.90;;;;;;4860422;29;19988;-87
2023/10/28 01:52:50;;;;;;;;;;;8.80;99.90;;;;;;4861210;29;20414;-88
2023/10/28 01:55:16;;;;;;;;;;;8.80;99.90;;;;;;4860908;29;19932;-88
2023/10/28 01:57:42;;;;;;;;;;;8.80;99.90;;;;;;4860203;29;20304;-88
2023/10/28 02:00:12;;;;;;;;;;;8.80;99.90;;;;;;4861158;29;19936;-88
2023/10/28 02:02:37;;;;;;;;;;;8.80;99.90;;;;;;4861129;29;19938;-88
2023/10/28 02:05:03;;;;;;;;;;;8.80;99.90;;;;;;4860189;29;20022;-87
2023/10/28 02:07:29;;;;;;;;;;;8.70;99.90;;;;;;4859809;29;19928;-88
2023/10/28 02:09:54;;;;;;;;;;;8.70;99.90;;;;;;4861122;29;19936;-87
2023/10/28 02:12:20;;;;;;;;;;;8.70;99.90;;;;;;4861493;29;20369;-87
2023/10/28 02:14:46;;;;;;;;;;;8.70;99.90;;;;;;4844726;29;19932;-88
2023/10/28 02:17:12;;;;;;;;;;;8.60;99.90;;;;;;4859426;29;20384;-88
2023/10/28 02:19:39;;;;;;;;;;;8.60;99.90;;;;;;4860012;29;19971;-87
2023/10/28 02:22:04;;;;;;;;;;;8.60;99.90;;;;;;4859686;29;19934;-88
2023/10/28 02:24:30;;;;;;;;;;;8.60;99.90;;;;;;4864200;29;20355;-87
2023/10/28 02:26:55;;;;;;;;;;;8.60;99.90;;;;;;4863116;29;19939;-88
2023/10/28 02:29:22;;;;;;;;;;;8.60;99.90;;;;;;4863257;29;19935;-87
2023/10/28 02:31:48;;;;;;;;;;;8.50;99.90;;;;;;4863348;29;19932;-87
2023/10/28 02:34:14;;;;;;;;;;;8.50;99.90;;;;;;4864146;29;19928;-87
2023/10/28 02:36:40;;;;;;;;;;;8.50;99.90;;;;;;4847729;29;19928;-88
2023/10/28 02:39:06;;;;;;;;;;;8.50;99.90;;;;;;4864225;29;20397;-87
2023/10/28 02:41:31;;;;;;;;;;;8.50;99.90;;;;;;4863445;29;19950;-89
2023/10/28 02:43:58;;;;;;;;;;;8.50;99.90;;;;;;4864171;29;19951;-88
2023/10/28 02:46:24;;;;;;;;;;;8.50;99.90;;;;;;4862944;29;19934;-87
2023/10/28 02:48:51;;;;;;;;;;;8.50;99.90;;;;;;4863357;29;19928;-89
2023/10/28 02:51:17;;;;;;;;;;;8.50;99.90;;;;;;4848600;29;19990;-87
2023/10/28 02:53:43;;;;;;;;;;;8.50;99.90;;;;;;4862851;29;19995;-88
2023/10/28 02:56:08;;;;;;;;;;;8.50;99.90;;;;;;4862913;29;19932;-89
2023/10/28 02:58:34;;;;;;;;;;;8.50;99.90;;;;;;4877943;29;19928;-89
2023/10/28 03:01:10;;;;;;;;;;;8.50;99.90;;;;;;4864199;29;19985;-86
2023/10/28 03:03:36;;;;;;;;;;;8.50;99.90;;;;;;4862615;29;19928;-87
2023/10/28 03:06:02;;;;;;;;;;;8.50;99.90;;;;;;4847994;29;19928;-88
2023/10/28 03:08:28;;;;;;;;;;;8.60;99.90;;;;;;4863106;29;19928;-87
2023/10/28 03:10:54;;;;;;;;;;;8.60;99.90;;;;;;4847457;29;20320;-87
2023/10/28 03:13:19;;;;;;;;;;;8.70;99.90;;;;;;4863004;29;19932;-87
2023/10/28 03:15:46;;;;;;;;;;;8.70;99.90;;;;;;4863408;29;19928;-87
2023/10/28 03:18:15;;;;;;;;;;;8.70;99.90;;;;;;4862865;29;20250;-87
2023/10/28 03:20:41;;;;;;;;;;;8.80;99.90;;;;;;4863580;29;19979;-88
2023/10/28 03:23:07;;;;;;;;;;;8.80;99.90;;;;;;4863721;29;19986;-88
2023/10/28 03:25:32;;;;;;;;;;;8.90;99.90;;;;;;4863239;29;19928;-87
2023/10/28 03:28:01;;;;;;;;;;;8.90;99.90;;;;;;4863649;29;20403;-88
2023/10/28 03:30:27;;;;;;;;;;;8.90;99.90;;;;;;4862665;29;19941;-87
2023/10/28 03:32:52;;;;;;;;;;;8.90;99.90;;;;;;4862090;29;19932;-88
2023/10/28 03:35:18;;;;;;;;;;;9.00;99.90;;;;;;4862045;29;19990;-88
2023/10/28 03:37:44;;;;;;;;;;;9.00;99.90;;;;;;4862175;29;19995;-87
2023/10/28 03:40:10;;;;;;;;;;;9.00;99.90;;;;;;4862937;29;20372;-87
2023/10/28 03:42:36;;;;;;;;;;;9.00;99.90;;;;;;4862210;29;20061;-88
2023/10/28 03:45:05;;;;;;;;;;;9.10;99.90;;;;;;4847197;29;19980;-88
2023/10/28 03:47:31;;;;;;;;;;;9.10;99.90;;;;;;4863325;29;19928;-87
2023/10/28 03:49:57;;;;;;;;;;;9.10;99.90;;;;;;4862652;29;19932;-87
2023/10/28 03:52:22;;;;;;;;;;;9.20;99.90;;;;;;4862598;29;20378;-88
2023/10/28 03:54:48;;;;;;;;;;;9.20;99.90;;;;;;4862035;29;19935;-88
2023/10/28 03:57:13;;;;;;;;;;;9.30;99.90;;;;;;4861844;29;19935;-88
2023/10/28 03:59:39;;;;;;;;;;;9.30;99.90;;;;;;4863160;29;19928;-88
2023/10/28 04:02:04;;;;;;;;;;;9.30;99.90;;;;;;4862113;29;19980;-87
2023/10/28 04:04:30;;;;;;;;;;;9.40;99.90;;;;;;4863473;29;19935;-88
2023/10/28 04:06:56;;;;;;;;;;;9.40;99.90;;;;;;4862129;29;20402;-87
2023/10/28 04:09:22;;;;;;;;;;;9.50;99.90;;;;;;4863566;29;19928;-88
2023/10/28 04:11:48;;;;;;;;;;;9.50;99.90;;;;;;4864277;29;20027;-87
2023/10/28 04:14:13;;;;;;;;;;;9.50;99.90;;;;;;4862172;29;19972;-88
2023/10/28 04:16:39;;;;;;;;;;;9.50;99.90;;;;;;4862981;29;19932;-88
2023/10/28 04:19:05;;;;;;;;;;;9.50;99.90;;;;;;4861718;29;19951;-88
2023/10/28 04:21:30;;;;;;;;;;;9.60;99.90;;;;;;4862693;29;19984;-87
2023/10/28 04:23:56;;;;;;;;;;;9.60;99.90;;;;;;4863305;29;19939;-89
2023/10/28 04:26:21;;;;;;;;;;;9.60;99.90;;;;;;4861416;29;19935;-88
2023/10/28 04:28:47;;;;;;;;;;;9.60;99.90;;;;;;4861464;29;19929;-88
2023/10/28 04:31:15;;;;;;;;;;;9.60;99.90;;;;;;4861596;29;20395;-87
2023/10/28 04:33:41;;;;;;;;;;;9.60;99.90;;;;;;4861523;29;19928;-88
2023/10/28 04:36:09;;;;;;;;;;;9.60;99.90;;;;;;4862413;29;19939;-88
2023/10/28 04:38:36;;;;;;;;;;;9.60;99.90;;;;;;4861260;29;20377;-88
2023/10/28 04:41:02;;;;;;;;;;;9.60;99.90;;;;;;4861262;29;19967;-87
2023/10/28 04:43:29;;;;;;;;;;;9.60;99.90;;;;;;4830946;29;19975;-88
2023/10/28 04:45:54;;;;;;;;;;;9.60;99.90;;;;;;4860641;29;20303;-88
2023/10/28 04:48:21;;;;;;;;;;;9.60;99.90;;;;;;4830839;29;19928;-88
2023/10/28 04:50:47;;;;;;;;;;;9.60;99.90;;;;;;4860942;29;20376;-88
2023/10/28 04:53:13;;;;;;;;;;;9.60;99.90;;;;;;4862510;29;19928;-87
2023/10/28 04:55:38;;;;;;;;;;;9.70;99.90;;;;;;4861055;29;20345;-87
2023/10/28 04:58:05;;;;;;;;;;;9.70;99.90;;;;;;4861831;29;19929;-88
2023/10/28 05:00:31;;;;;;;;;;;9.70;99.90;;;;;;4861865;29;19928;-89
2023/10/28 05:02:56;;;;;;;;;;;9.70;99.90;;;;;;4862424;29;19932;-88
2023/10/28 05:05:22;;;;;;;;;;;9.70;99.90;;;;;;4861250;29;19928;-88
2023/10/28 05:07:47;;;;;;;;;;;9.80;99.90;;;;;;4861904;29;20283;-88
2023/10/28 05:10:13;;;;;;;;;;;9.70;99.90;;;;;;4860410;29;19931;-88
2023/10/28 05:12:40;;;;;;;;;;;9.80;99.90;;;;;;4860926;29;19929;-88
2023/10/28 05:15:06;;;;;;;;;;;9.80;99.90;;;;;;4862064;29;20007;-87
2023/10/28 05:17:32;;;;;;;;;;;9.80;99.90;;;;;;4845221;29;19984;-88
2023/10/28 05:19:58;;;;;;;;;;;9.80;99.90;;;;;;4860905;29;19928;-85
2023/10/28 05:22:23;;;;;;;;;;;9.80;99.90;;;;;;4860219;29;19928;-88
2023/10/28 05:24:52;;;;;;;;;;;9.90;99.90;;;;;;4861760;29;19928;-86
2023/10/28 05:27:18;;;;;;;;;;;9.90;99.90;;;;;;4845953;29;19971;-87
2023/10/28 05:29:43;;;;;;;;;;;9.90;99.90;;;;;;4861708;29;19950;-86
2023/10/28 05:32:09;;;;;;;;;;;10.00;99.90;;;;;;4861276;29;19979;-87
2023/10/28 05:34:34;;;;;;;;;;;10.00;99.90;;;;;;4845576;29;20379;-85
2023/10/28 05:37:00;;;;;;;;;;;10.00;99.90;;;;;;4860318;29;19928;-87
2023/10/28 05:39:25;;;;;;;;;;;10.00;99.90;;;;;;4845500;29;19943;-85
2023/10/28 05:41:51;;;;;;;;;;;10.00;99.90;;;;;;4845461;29;19928;-85
2023/10/28 05:44:17;;;;;;;;;;;10.00;99.90;;;;;;4860791;29;19928;-84
2023/10/28 05:46:44;;;;;;;;;;;10.00;99.90;;;;;;4860511;29;19951;-86
2023/10/28 05:49:12;;;;;;;;;;;10.00;99.90;;;;;;4860507;29;19956;-86
2023/10/28 05:51:38;;;;;;;;;;;10.00;99.90;;;;;;4861050;29;20272;-86
2023/10/28 05:54:04;;;;;;;;;;;10.00;99.90;;;;;;4861417;29;19928;-86
2023/10/28 05:56:30;;;;;;;;;;;10.00;99.90;;;;;;4845682;29;19934;-85
2023/10/28 05:58:58;;;;;;;;;;;10.00;99.90;;;;;;4832523;29;20015;-87
2023/10/28 06:01:24;;;;;;;;;;;9.90;99.90;;;;;;4865111;29;19928;-86
2023/10/28 06:03:50;;;;;;;;;;;9.90;99.90;;;;;;4864914;29;19928;-89
2023/10/28 06:06:15;;;;;;;;;;;9.90;99.90;;;;;;4864356;29;20416;-88
2023/10/28 06:08:41;;;;;;;;;;;9.80;99.90;;;;;;4864039;29;19935;-87
2023/10/28 06:11:09;;;;;;;;;;;9.80;99.90;;;;;;4864028;29;19934;-86
2023/10/28 06:13:37;;;;;;;;;;;9.80;99.90;;;;;;4863461;29;19935;-87
2023/10/28 06:16:03;;;;;;;;;;;9.70;99.90;;;;;;4864803;29;19928;-87
2023/10/28 06:18:29;;;;;;;;;;;9.70;99.90;;;;;;4864056;29;19935;-86
2023/10/28 06:20:55;;;;;;;;;;;9.70;99.90;;;;;;4863811;29;19927;-87
2023/10/28 06:23:21;;;;;;;;;;;9.70;99.90;;;;;;4863303;29;20482;-88
2023/10/28 06:25:46;;;;;;;;;;;9.60;99.90;;;;;;4864032;29;19932;-88
2023/10/28 06:28:12;;;;;;;;;;;9.60;99.90;;;;;;4848360;29;20014;-87
2023/10/28 06:30:50;;;;;;;;;;;9.60;99.90;;;;;;4864616;29;19932;-88
2023/10/28 06:33:16;;;;;;;;;;;9.50;99.90;;;;;;4863584;29;19929;-87
2023/10/28 06:35:42;;;;;;;;;;;9.60;99.90;;;;;;4864259;29;19928;-87
2023/10/28 06:38:08;;;;;;;;;;;9.60;99.90;;;;;;4866260;29;19950;-85
2023/10/28 06:40:37;;;;;;;;;;;9.60;99.90;;;;;;4866001;29;19932;-87
2023/10/28 06:43:03;;;;;;;;;;;9.60;99.90;;;;;;4864698;29;19929;-86
2023/10/28 06:45:29;;;;;;;;;;;9.70;99.90;;;;;;4864215;29;19934;-87
2023/10/28 06:47:54;;;;;;;;;;;9.70;99.90;;;;;;4864198;29;19951;-87
2023/10/28 06:50:20;;;;;;;;;;;9.70;99.90;;;;;;4848546;29;19935;-87
2023/10/28 06:52:48;;;;;;;;;;;9.70;99.90;;;;;;4864412;29;19979;-88
2023/10/28 06:55:14;;;;;;;;;;;9.70;99.90;;;;;;4848454;29;19929;-86
2023/10/28 06:57:41;;;;;;;;;;;9.80;99.90;;;;;;4847898;29;19928;-89
2023/10/28 07:00:12;;;;;;;;;;;9.80;99.90;;;;;;4862988;29;19932;-87
2023/10/28 07:02:38;;;;;;;;;;;9.80;99.90;;;;;;4863467;29;19940;-86
2023/10/28 07:05:03;;;;;;;;;;;9.90;99.90;;;;;;4863879;29;20257;-85
2023/10/28 07:07:29;;;;;;;;;;;9.80;99.90;;;;;;4863288;29;20360;-87
2023/10/28 07:09:54;;;;;;;;;;;9.90;99.90;;;;;;4847355;29;20022;-86
2023/10/28 07:12:20;;;;;;;;;;;9.90;99.90;;;;;;4864065;29;19936;-86
2023/10/28 07:14:47;;;;;;;;;;;9.90;99.90;;;;;;4863726;29;20026;-86
2023/10/28 07:17:12;;;;;;;;;;;9.90;99.90;;;;;;4862593;29;19928;-87
2023/10/28 07:19:38;;;;;;;;;;;9.90;99.90;;;;;;4862805;29;19935;-87
2023/10/28 07:22:04;;;;;;;;;;;9.90;99.90;;;;;;4847244;29;19928;-87
2023/10/28 07:24:31;;;;;;;;;;;9.90;99.90;;;;;;4848227;29;19928;-87
2023/10/28 07:26:57;;;;;;;;;;;9.90;99.90;;;;;;4862956;29;20073;-87
2023/10/28 07:29:23;;;;;;;;;;;9.90;99.90;;;;;;4863413;29;20338;-87
2023/10/28 07:31:48;;;;;;;;;;;9.90;99.90;;;;;;4862415;29;20300;-87
2023/10/28 07:34:14;;;;;;;;;;;9.90;99.90;;;;;;4847462;29;20072;-87
2023/10/28 07:36:40;;;;;;;;;;;9.90;99.90;;;;;;4847165;29;19975;-87
2023/10/28 07:39:06;;;;;;;;;;;9.90;99.90;;;;;;4862758;29;19944;-86
2023/10/28 07:41:32;;;;;;;;;;;9.90;99.90;;;;;;4862509;29;19928;-91
2023/10/28 07:43:57;;;;;;;;;;;10.00;99.90;;;;;;4846891;29;19928;-87
2023/10/28 07:46:25;;;;;;;;;;;10.00;99.90;;;;;;4862109;29;19928;-88
2023/10/28 07:48:51;;;;;;;;;;;10.10;99.90;;;;;;4862193;29;19992;-87
2023/10/28 07:51:17;;;;;;;;;;;10.10;99.90;;;;;;4862078;29;20396;-88
2023/10/28 07:53:44;;;;;;;;;;;10.20;99.90;;;;;;4846928;29;19928;-87
2023/10/28 07:56:09;;;;;;;;;;;10.10;99.90;;;;;;4846677;29;19932;-88
2023/10/28 07:58:35;;;;;;;;;;;10.20;99.90;;;;;;4863603;29;20277;-87
2023/10/28 08:01:02;;;;;;;;;;;10.20;99.90;;;;;;4846896;29;20022;-85
2023/10/28 08:03:28;;;;;;;;;;;10.30;99.90;;;;;;4846954;29;19928;-87
2023/10/28 08:05:54;;;;;;;;;;;10.30;99.90;;;;;;4863508;29;20031;-87
2023/10/28 08:08:20;;;;;;;;;;;10.40;99.90;;;;;;4846966;29;19950;-87
2023/10/28 08:10:46;;;;;;;;;;;10.40;99.90;;;;;;4861881;29;20463;-88
2023/10/28 08:13:11;;;;;;;;;;;10.50;99.90;;;;;;4862939;29;19932;-88
2023/10/28 08:15:39;;;;;;;;;;;10.50;99.90;;;;;;4862816;29;19932;-86
2023/10/28 08:18:05;;;;;;;;;;;10.50;99.90;;;;;;4846510;29;19928;-88
2023/10/28 08:20:30;;;;;;;;;;;10.50;99.90;;;;;;4846644;29;20233;-87
2023/10/28 08:22:56;;;;;;;;;;;10.50;99.90;;;;;;4845914;29;19932;-87
2023/10/28 08:25:22;;;;;;;;;;;10.50;99.90;;;;;;4861726;29;19928;-87
2023/10/28 08:27:48;;;;;;;;;;;10.50;99.90;;;;;;4861628;29;20389;-88
2023/10/28 08:30:17;;;;;;;;;;;10.60;99.90;;;;;;4861549;29;20022;-85
2023/10/28 08:32:43;;;;;;;;;;;10.60;99.90;;;;;;4861537;29;20018;-87
2023/10/28 08:35:09;;;;;;;;;;;10.60;99.90;;;;;;4861496;29;20353;-87
2023/10/28 08:37:35;;;;;;;;;;;10.60;99.90;;;;;;4860851;29;19935;-87
2023/10/28 08:40:01;;;;;;;;;;;10.60;99.90;;;;;;4846161;29;19928;-85
2023/10/28 08:42:27;;;;;;;;;;;10.70;99.90;;;;;;4846021;29;19939;-87
2023/10/28 08:44:53;;;;;;;;;;;10.70;99.90;;;;;;4845632;29;19928;-88
2023/10/28 08:47:21;;;;;;;;;;;10.70;99.90;;;;;;4862221;29;19976;-87
2023/10/28 08:49:48;;;;;;;;;;;10.70;99.90;;;;;;4861314;29;19938;-88
2023/10/28 08:52:15;;;;;;;;;;;10.80;99.90;;;;;;4860961;29;20054;-87
2023/10/28 08:54:42;;;;;;;;;;;10.90;99.90;;;;;;4861471;29;19928;-87
2023/10/28 08:57:07;;;;;;;;;;;10.90;99.90;;;;;;4845530;29;19928;-88
2023/10/28 08:59:33;;;;;;;;;;;10.90;99.90;;;;;;4861384;29;19983;-87
2023/10/28 09:01:59;;;;;;;;;;;11.00;99.90;;;;;;4845673;29;19934;-87
2023/10/28 09:04:25;;;;;;;;;;;11.00;99.90;;;;;;4861790;29;20412;-87
2023/10/28 09:06:53;;;;;;;;;;;11.10;99.90;;;;;;4862872;29;20027;-87
2023/10/28 09:09:21;;;;;;;;;;;11.10;99.90;;;;;;4862434;29;19928;-86
2023/10/28 09:11:47;;;;;;;;;;;11.20;99.90;;;;;;4846546;29;19988;-86
2023/10/28 09:14:13;;;;;;;;;;;11.30;99.90;;;;;;4845679;29;19934;-86
2023/10/28 09:16:39;;;;;;;;;;;11.30;99.90;;;;;;4860537;29;20015;-87
2023/10/28 09:19:05;;;;;;;;;;;11.40;99.90;;;;;;4860852;29;20007;-87
2023/10/28 09:21:31;;;;;;;;;;;11.60;99.90;;;;;;4861668;29;19975;-87
2023/10/28 09:24:00;;;;;;;;;;;11.70;99.90;;;;;;4845193;29;20030;-87
2023/10/28 09:26:26;;;;;;;;;;;11.80;99.90;;;;;;4861898;29;19951;-86
2023/10/28 09:28:52;;;;;;;;;;;11.80;99.90;;;;;;4860732;29;19967;-88
2023/10/28 09:31:24;;;;;;;;;;;11.90;99.90;;;;;;4845251;29;19970;-87
2023/10/28 09:33:50;;;;;;;;;;;11.80;99.90;;;;;;4860692;29;19928;-85
2023/10/28 09:36:16;;;;;;;;;;;11.80;99.90;;;;;;4860804;29;20454;-87
2023/10/28 09:38:43;;;;;;;;;;;11.80;99.90;;;;;;4861467;29;19935;-87
2023/10/28 09:41:09;;;;;;;;;;;11.90;99.90;;;;;;4860287;29;19975;-87
2023/10/28 09:43:36;;;;;;;;;;;11.90;99.90;;;;;;4860611;29;19928;-86
2023/10/28 09:46:03;;;;;;;;;;;12.00;99.90;;;;;;4860591;29;20486;-86
2023/10/28 09:48:31;;;;;;;;;;;12.00;99.90;;;;;;4845305;29;19988;-87
2023/10/28 09:50:58;;;;;;;;;;;12.00;99.90;;;;;;4861428;29;19932;-86
2023/10/28 09:53:29;;;;;;;;;;;12.00;99.90;;;;;;4860470;29;19935;-87
2023/10/28 09:55:56;;;;;;;;;;;11.90;99.90;;;;;;4861199;29;19934;-86
2023/10/28 09:58:24;;;;;;;;;;;11.80;99.90;;;;;;4861306;29;19932;-86
2023/10/28 10:00:52;;;;;;;;;;;11.80;99.90;;;;;;4860586;29;20486;-85
2023/10/28 10:03:31;;;;;;;;;;;11.80;99.90;;;;;;4860453;29;19962;-87
2023/10/28 10:05:57;;;;;;;;;;;11.80;99.90;;;;;;4860628;29;19928;-87
2023/10/28 10:08:23;;;;;;;;;;;11.90;99.90;;;;;;4861824;29;19928;-86
2023/10/28 10:10:50;;;;;;;;;;;11.90;99.90;;;;;;4860856;29;20437;-87
2023/10/28 10:13:16;;;;;;;;;;;11.90;99.90;;;;;;4860578;29;19928;-85
2023/10/28 10:15:47;;;;;;;;;;;11.90;99.90;;;;;;4860214;29;19979;-86
2023/10/28 10:18:21;;;;;;;;;;;11.90;99.90;;;;;;4862122;29;19935;-84
2023/10/28 10:20:47;;;;;;;;;;;11.90;99.90;;;;;;4860594;29;19932;-85
2023/10/28 10:23:13;;;;;;;;;;;11.90;99.90;;;;;;4859985;29;19929;-85
2023/10/28 10:25:41;;;;;;;;;;;12.00;99.90;;;;;;4860376;29;19935;-85
2023/10/28 10:28:11;;;;;;;;;;;11.90;99.90;;;;;;4860250;29;20393;-86
2023/10/28 10:30:37;;;;;;;;;;;12.00;99.90;;;;;;4859925;29;20428;-87
2023/10/28 10:33:03;;;;;;;;;;;12.10;99.90;;;;;;4859870;29;19995;-85
2023/10/28 10:35:33;;;;;;;;;;;12.20;99.90;;;;;;4859929;29;19928;-86
2023/10/28 10:38:04;;;;;;;;;;;12.30;99.90;;;;;;4859879;29;19928;-85
2023/10/28 10:40:31;;;;;;;;;;;12.50;99.90;;;;;;4844732;29;20399;-87
2023/10/28 10:43:03;;;;;;;;;;;12.60;99.90;;;;;;4860361;29;19939;-85
2023/10/28 10:45:28;;;;;;;;;;;12.60;99.90;;;;;;4864006;29;19928;-86
2023/10/28 10:47:54;;;;;;;;;;;12.70;99.90;;;;;;4863625;29;20254;-89
2023/10/28 10:50:20;;;;;;;;;;;12.80;99.90;;;;;;4864896;29;19928;-86
2023/10/28 10:52:46;;;;;;;;;;;12.80;99.90;;;;;;4864914;29;19998;-85
2023/10/28 10:55:21;;;;;;;;;;;12.80;99.90;;;;;;4863312;29;19928;-84
2023/10/28 10:57:47;;;;;;;;;;;12.70;99.90;;;;;;4863753;29;19932;-84
2023/10/28 11:00:13;;;;;;;;;;;12.70;99.90;;;;;;4864142;29;20000;-84
2023/10/28 11:02:38;;;;;;;;;;;12.60;99.90;;;;;;4863973;29;19934;-85
2023/10/28 11:05:04;;;;;;;;;;;12.60;99.90;;;;;;4863251;29;19979;-86
2023/10/28 11:07:30;;;;;;;;;;;12.60;99.90;;;;;;4863104;29;19983;-86
2023/10/28 11:09:55;;;;;;;;;;;12.60;99.90;;;;;;4864235;29;20296;-86
2023/10/28 11:12:22;;;;;;;;;;;12.50;99.90;;;;;;4863784;29;19936;-86
2023/10/28 11:14:48;;;;;;;;;;;12.60;99.90;;;;;;4863700;29;19928;-85
2023/10/28 11:17:13;;;;;;;;;;;12.50;99.90;;;;;;4847321;29;19976;-86
2023/10/28 11:19:46;;;;;;;;;;;12.50;99.90;;;;;;4847590;29;20419;-84
2023/10/28 11:22:12;;;;;;;;;;;12.40;99.90;;;;;;4862449;29;19928;-86
2023/10/28 11:24:38;;;;;;;;;;;12.50;99.90;;;;;;4862812;29;20023;-84
2023/10/28 11:27:03;;;;;;;;;;;12.40;99.90;;;;;;4863644;29;20019;-85
2023/10/28 11:29:29;;;;;;;;;;;12.50;99.90;;;;;;4862668;29;19934;-85
2023/10/28 11:31:55;;;;;;;;;;;12.50;99.90;;;;;;4862869;29;19944;-86
2023/10/28 11:34:20;;;;;;;;;;;12.50;99.90;;;;;;4864680;29;20385;-89
2023/10/28 11:36:46;;;;;;;;;;;12.60;99.90;;;;;;4864275;29;19932;-86
2023/10/28 11:39:13;;;;;;;;;;;12.70;99.90;;;;;;4862502;29;19928;-85
2023/10/28 11:41:42;;;;;;;;;;;12.70;99.90;;;;;;4863560;29;19935;-86
2023/10/28 11:44:10;;;;;;;;;;;12.70;99.90;;;;;;4864307;29;19971;-87
2023/10/28 11:46:35;;;;;;;;;;;12.70;99.90;;;;;;4862234;29;19928;-86
2023/10/28 11:49:03;;;;;;;;;;;12.70;99.90;;;;;;4862432;29;19935;-85
2023/10/28 11:51:29;;;;;;;;;;;12.70;99.90;;;;;;4863074;29;19980;-90
2023/10/28 11:53:55;;;;;;;;;;;12.70;99.90;;;;;;4847784;29;19935;-86
2023/10/28 11:56:20;;;;;;;;;;;12.80;99.90;;;;;;4845657;29;19928;-87
2023/10/28 11:58:46;;;;;;;;;;;12.80;99.90;;;;;;4862179;29;19936;-86
2023/10/28 12:01:12;;;;;;;;;;;12.90;99.90;;;;;;4862625;29;19928;-83
2023/10/28 12:03:38;;;;;;;;;;;13.00;99.90;;;;;;4862437;29;20015;-88
2023/10/28 12:06:04;;;;;;;;;;;13.10;99.90;;;;;;4863363;29;19928;-89
2023/10/28 12:08:30;;;;;;;;;;;13.10;99.90;;;;;;4863801;29;19928;-87
2023/10/28 12:10:55;;;;;;;;;;;13.20;99.90;;;;;;4862437;29;20304;-85
2023/10/28 12:13:22;;;;;;;;;;;13.20;99.90;;;;;;4862988;29;19928;-87
2023/10/28 12:15:47;;;;;;;;;;;13.30;99.90;;;;;;4861948;29;19996;-86
2023/10/28 12:18:13;;;;;;;;;;;13.40;99.90;;;;;;4831776;29;20372;-86
2023/10/28 12:20:39;;;;;;;;;;;13.40;99.90;;;;;;4862385;29;19934;-84
2023/10/28 12:23:05;;;;;;;;;;;13.40;99.90;;;;;;4862616;29;20257;-85
2023/10/28 12:25:31;;;;;;;;;;;13.50;99.90;;;;;;4862779;29;20026;-86
2023/10/28 12:27:57;;;;;;;;;;;13.50;99.90;;;;;;4862245;29;19978;-87
2023/10/28 12:30:22;;;;;;;;;;;13.50;99.90;;;;;;4862311;29;19971;-84
2023/10/28 12:32:49;;;;;;;;;;;13.50;99.90;;;;;;4862658;29;19981;-87
2023/10/28 12:35:15;;;;;;;;;;;13.60;99.90;;;;;;4861970;29;20276;-86
2023/10/28 12:37:40;;;;;;;;;;;13.60;99.90;;;;;;4860973;29;19929;-86
2023/10/28 12:40:06;;;;;;;;;;;13.60;99.90;;;;;;4862662;29;19932;-85
2023/10/28 12:42:35;;;;;;;;;;;13.70;99.90;;;;;;4861734;29;19944;-86
2023/10/28 12:45:06;;;;;;;;;;;13.70;99.90;;;;;;4846363;29;19932;-86
2023/10/28 12:47:32;;;;;;;;;;;13.70;99.90;;;;;;4861120;29;19929;-84
2023/10/28 12:49:57;;;;;;;;;;;13.60;99.90;;;;;;4845921;29;19932;-86
2023/10/28 12:52:23;;;;;;;;;;;13.60;99.90;;;;;;4862685;29;20320;-84
2023/10/28 12:54:48;;;;;;;;;;;13.60;99.90;;;;;;4861603;29;20018;-85
2023/10/28 12:57:14;;;;;;;;;;;13.60;99.90;;;;;;4860954;29;19928;-86
2023/10/28 12:59:40;;;;;;;;;;;13.60;99.90;;;;;;4862019;29;19996;-85
2023/10/28 13:02:05;;;;;;;;;;;13.70;99.90;;;;;;4861175;29;20417;-87
2023/10/28 13:04:31;;;;;;;;;;;13.70;99.90;;;;;;4861134;29;19975;-87
2023/10/28 13:06:57;;;;;;;;;;;13.90;99.90;;;;;;4861043;29;20022;-86
2023/10/28 13:09:24;;;;;;;;;;;14.00;99.90;;;;;;4862014;29;19928;-85
2023/10/28 13:11:50;;;;;;;;;;;14.00;99.90;;;;;;4862227;29;20299;-86
2023/10/28 13:14:19;;;;;;;;;;;14.00;99.90;;;;;;4861856;29;19928;-86
2023/10/28 13:16:45;;;;;;;;;;;14.00;99.90;;;;;;4860883;29;20364;-85
2023/10/28 13:19:10;;;;;;;;;;;13.90;99.90;;;;;;4860897;29;19984;-87
2023/10/28 13:21:36;;;;;;;;;;;13.90;99.90;;;;;;4860886;29;19985;-84
2023/10/28 13:24:02;;;;;;;;;;;13.90;99.90;;;;;;4860747;29;19928;-86
2023/10/28 13:26:29;;;;;;;;;;;13.90;99.90;;;;;;4846279;29;19928;-85
2023/10/28 13:28:55;;;;;;;;;;;13.90;99.90;;;;;;4862004;29;19934;-85
2023/10/28 13:31:20;;;;;;;;;;;13.90;99.90;;;;;;4861077;29;20014;-86
2023/10/28 13:33:46;;;;;;;;;;;13.80;99.90;;;;;;4861059;29;19932;-86
2023/10/28 13:36:12;;;;;;;;;;;13.80;99.90;;;;;;4861305;29;19966;-86
2023/10/28 13:38:38;;;;;;;;;;;13.80;99.90;;;;;;4860383;29;19928;-87
2023/10/28 13:41:03;;;;;;;;;;;13.80;99.90;;;;;;4845695;29;19935;-85
2023/10/28 13:43:29;;;;;;;;;;;13.70;99.90;;;;;;4861266;29;19928;-86
2023/10/28 13:46:03;;;;;;;;;;;13.70;99.90;;;;;;4860990;29;20094;-85
2023/10/28 13:48:29;;;;;;;;;;;13.70;99.90;;;;;;4861434;29;20233;-87
2023/10/28 13:50:55;;;;;;;;;;;13.70;99.90;;;;;;4860912;29;19944;-85
2023/10/28 13:53:20;;;;;;;;;;;13.70;99.90;;;;;;4860862;29;19936;-85
2023/10/28 13:55:48;;;;;;;;;;;13.60;99.90;;;;;;4860156;29;19928;-85
2023/10/28 13:58:14;;;;;;;;;;;13.60;99.90;;;;;;4860729;29;19928;-87
2023/10/28 14:00:39;;;;;;;;;;;13.60;99.90;;;;;;4844560;29;20402;-87
2023/10/28 14:03:05;;;;;;;;;;;13.60;99.90;;;;;;4863648;29;19928;-85
2023/10/28 14:05:32;;;;;;;;;;;13.60;99.90;;;;;;4861442;29;20318;-87
2023/10/28 14:07:58;;;;;;;;;;;13.60;99.90;;;;;;4861406;29;20011;-85
2023/10/28 14:10:24;;;;;;;;;;;13.50;99.90;;;;;;4860401;29;19932;-84
2023/10/28 14:12:49;;;;;;;;;;;13.50;99.90;;;;;;4860251;29;19929;-85
2023/10/28 14:15:15;;;;;;;;;;;13.50;99.90;;;;;;4861407;29;19957;-85
2023/10/28 14:17:41;;;;;;;;;;;13.50;99.90;;;;;;4845521;29;20006;-85